createdAt,value
2022-12-31T00:01:52.198Z,13.68
2022-12-31T00:04:19.028Z,15.00
2022-12-31T00:06:47.428Z,14.48
2022-12-31T00:09:14.230Z,14.35
2022-12-31T00:11:41.302Z,13.60
2022-12-31T00:14:08.140Z,13.80
2022-12-31T00:16:38.334Z,15.77
2022-12-31T00:19:06.845Z,14.90
2022-12-31T00:21:34.535Z,15.32
2022-12-31T00:24:02.823Z,13.05
2022-12-31T00:26:32.482Z,13.88
2022-12-31T00:29:00.619Z,12.73
2022-12-31T00:31:31.210Z,14.30
2022-12-31T00:33:58.880Z,15.27
2022-12-31T00:36:34.849Z,12.00
2022-12-31T00:39:03.325Z,12.63
2022-12-31T00:41:31.439Z,12.80
2022-12-31T00:43:58.642Z,12.93
2022-12-31T00:46:26.481Z,14.00
2022-12-31T00:48:53.755Z,13.77
2022-12-31T00:51:23.001Z,13.02
2022-12-31T00:53:50.348Z,13.43
2022-12-31T00:56:23.204Z,12.48
2022-12-31T00:58:50.444Z,14.60
2022-12-31T01:01:24.395Z,12.70
2022-12-31T01:06:20.279Z,11.73
2022-12-31T01:08:49.715Z,12.27
2022-12-31T01:11:20.442Z,12.63
2022-12-31T01:13:49.647Z,11.30
2022-12-31T01:16:18.632Z,10.50
2022-12-31T01:18:45.693Z,11.60
2022-12-31T01:21:13.812Z,11.13
2022-12-31T01:23:41.111Z,12.27
2022-12-31T01:26:10.645Z,10.85
2022-12-31T01:28:37.446Z,12.30
2022-12-31T01:31:07.546Z,11.95
2022-12-31T01:33:35.004Z,10.95
2022-12-31T01:36:12.444Z,11.73
2022-12-31T01:38:40.447Z,10.90
2022-12-31T01:41:11.460Z,10.50
2022-12-31T01:44:18.135Z,12.02
2022-12-31T01:46:46.853Z,10.70
2022-12-31T01:49:20.612Z,12.57
2022-12-31T01:51:55.801Z,11.90
2022-12-31T01:54:25.849Z,10.27
2022-12-31T01:56:55.255Z,11.52
2022-12-31T01:59:26.851Z,11.23
2022-12-31T02:01:54.711Z,9.85
2022-12-31T02:04:24.084Z,13.52
2022-12-31T02:06:58.570Z,11.38
2022-12-31T02:09:25.498Z,11.95
2022-12-31T02:11:53.171Z,12.57
2022-12-31T02:14:27.950Z,10.93
2022-12-31T02:17:19.577Z,11.85
2022-12-31T02:19:55.438Z,10.88
2022-12-31T02:22:50.416Z,12.20
2022-12-31T02:26:03.101Z,12.02
2022-12-31T02:28:54.278Z,12.27
2022-12-31T02:31:34.756Z,12.55
2022-12-31T02:34:14.030Z,14.20
2022-12-31T02:36:45.073Z,12.93
2022-12-31T02:39:13.968Z,14.05
2022-12-31T02:41:49.975Z,13.52
2022-12-31T02:44:38.518Z,12.90
2022-12-31T02:47:08.084Z,14.13
2022-12-31T02:50:12.644Z,12.73
2022-12-31T02:52:54.254Z,14.00
2022-12-31T02:55:33.618Z,15.82
2022-12-31T02:58:50.050Z,13.85
2022-12-31T03:01:42.476Z,13.55
2022-12-31T03:04:28.672Z,12.55
2022-12-31T03:06:55.812Z,14.32
2022-12-31T03:09:22.749Z,14.52
2022-12-31T03:12:08.554Z,14.95
2022-12-31T03:14:35.337Z,13.90
2022-12-31T03:17:02.417Z,15.05
2022-12-31T03:19:47.713Z,14.50
2022-12-31T03:22:30.191Z,15.65
2022-12-31T03:25:17.417Z,11.63
2022-12-31T03:27:45.537Z,13.57
2022-12-31T03:30:14.164Z,12.85
2022-12-31T03:32:42.951Z,13.77
2022-12-31T03:35:12.119Z,13.57
2022-12-31T03:37:40.657Z,15.88
2022-12-31T03:40:10.359Z,14.02
2022-12-31T03:42:37.541Z,13.65
2022-12-31T03:45:05.207Z,15.45
2022-12-31T03:47:32.457Z,13.65
2022-12-31T03:49:59.298Z,15.48
2022-12-31T03:52:26.350Z,14.20
2022-12-31T03:54:53.129Z,13.80
2022-12-31T03:57:20.316Z,15.02
2022-12-31T03:59:47.077Z,14.75
2022-12-31T04:02:14.324Z,14.20
2022-12-31T04:04:41.197Z,15.13
2022-12-31T04:07:08.357Z,13.18
2022-12-31T04:09:35.192Z,13.30
2022-12-31T04:12:02.516Z,16.45
2022-12-31T04:14:29.340Z,14.82
2022-12-31T04:16:56.448Z,14.10
2022-12-31T04:19:23.261Z,14.55
2022-12-31T04:21:50.384Z,14.45
2022-12-31T04:24:17.159Z,14.60
2022-12-31T04:26:44.249Z,14.63
2022-12-31T04:29:11.196Z,13.88
2022-12-31T04:31:38.261Z,15.18
2022-12-31T04:34:05.210Z,15.85
2022-12-31T04:36:32.360Z,15.23
2022-12-31T04:38:59.159Z,14.10
2022-12-31T04:41:27.181Z,16.10
2022-12-31T04:43:56.654Z,15.13
2022-12-31T04:46:29.591Z,17.23
2022-12-31T04:48:56.511Z,15.32
2022-12-31T04:51:25.248Z,16.30
2022-12-31T04:53:52.498Z,15.27
2022-12-31T04:56:19.704Z,16.05
2022-12-31T04:58:46.720Z,17.60
2022-12-31T05:01:15.022Z,16.48
2022-12-31T05:03:42.588Z,14.45
2022-12-31T05:06:16.229Z,16.20
2022-12-31T05:08:43.204Z,15.63
2022-12-31T05:11:10.736Z,15.77
2022-12-31T05:13:37.953Z,16.52
2022-12-31T05:16:05.956Z,17.15
2022-12-31T05:18:33.196Z,17.00
2022-12-31T05:21:00.655Z,16.05
2022-12-31T05:23:27.974Z,18.23
2022-12-31T05:25:55.239Z,18.63
2022-12-31T05:28:22.173Z,18.45
2022-12-31T05:30:50.809Z,16.85
2022-12-31T05:33:18.911Z,16.98
2022-12-31T05:35:46.402Z,16.65
2022-12-31T05:38:13.180Z,15.98
2022-12-31T05:40:40.251Z,17.45
2022-12-31T05:43:07.134Z,16.10
2022-12-31T05:45:34.233Z,17.90
2022-12-31T05:48:01.843Z,15.40
2022-12-31T05:50:29.085Z,16.13
2022-12-31T05:52:55.995Z,16.20
2022-12-31T05:55:23.509Z,15.70
2022-12-31T05:57:50.288Z,15.43
2022-12-31T06:00:17.649Z,16.77
2022-12-31T06:02:44.509Z,15.35
2022-12-31T06:05:12.331Z,14.77
2022-12-31T06:07:39.129Z,14.80
2022-12-31T06:10:06.973Z,14.68
2022-12-31T06:12:33.811Z,16.40
2022-12-31T06:15:00.895Z,16.45
2022-12-31T06:17:29.290Z,15.00
2022-12-31T06:19:56.488Z,16.40
2022-12-31T06:22:23.255Z,16.02
2022-12-31T06:24:50.338Z,13.55
2022-12-31T06:27:17.141Z,14.18
2022-12-31T06:29:45.769Z,15.45
2022-12-31T06:32:12.625Z,14.45
2022-12-31T06:34:39.699Z,15.02
2022-12-31T06:37:06.469Z,14.73
2022-12-31T06:39:33.596Z,16.45
2022-12-31T06:42:00.355Z,16.10
2022-12-31T06:44:27.500Z,14.93
2022-12-31T06:46:54.366Z,16.00
2022-12-31T06:49:21.397Z,15.50
2022-12-31T06:51:48.197Z,13.30
2022-12-31T06:54:15.263Z,14.80
2022-12-31T06:56:42.564Z,14.18
2022-12-31T06:59:24.425Z,16.35
2022-12-31T07:02:04.659Z,16.17
2022-12-31T07:05:10.129Z,17.05
2022-12-31T07:08:07.811Z,15.73
2022-12-31T07:10:54.089Z,16.08
2022-12-31T07:13:30.081Z,16.25
2022-12-31T07:16:16.595Z,14.82
2022-12-31T07:18:50.759Z,16.00
2022-12-31T07:21:25.262Z,17.02
2022-12-31T07:23:52.312Z,17.50
2022-12-31T07:26:31.496Z,15.18
2022-12-31T07:29:07.247Z,16.10
2022-12-31T07:31:37.278Z,14.40
2022-12-31T07:34:45.740Z,16.23
2022-12-31T07:37:27.339Z,14.68
2022-12-31T07:39:59.815Z,15.93
2022-12-31T07:43:04.439Z,14.63
2022-12-31T07:45:33.951Z,18.25
2022-12-31T07:48:02.961Z,17.48
2022-12-31T07:50:30.461Z,17.88
2022-12-31T07:52:57.922Z,15.82
2022-12-31T07:55:24.709Z,17.02
2022-12-31T07:58:01.206Z,16.08
2022-12-31T08:00:31.163Z,17.75
2022-12-31T08:03:01.316Z,17.67
2022-12-31T08:05:31.008Z,18.35
2022-12-31T08:08:13.225Z,17.40
2022-12-31T08:11:00.894Z,20.48
2022-12-31T08:13:28.129Z,17.60
2022-12-31T08:15:55.327Z,17.58
2022-12-31T08:18:22.585Z,18.10
2022-12-31T08:21:01.322Z,18.45
2022-12-31T08:23:37.327Z,18.55
2022-12-31T08:26:23.185Z,16.65
2022-12-31T08:29:01.801Z,18.65
2022-12-31T08:31:35.951Z,17.08
2022-12-31T08:34:28.198Z,18.27
2022-12-31T08:37:20.485Z,18.13
2022-12-31T08:39:59.325Z,17.25
2022-12-31T08:42:36.735Z,18.58
2022-12-31T08:45:28.819Z,18.60
2022-12-31T08:48:05.491Z,17.48
2022-12-31T08:50:32.849Z,16.40
2022-12-31T08:53:00.307Z,16.85
2022-12-31T08:55:27.651Z,18.60
2022-12-31T08:58:15.386Z,17.08
2022-12-31T09:00:42.813Z,21.20
2022-12-31T09:03:24.588Z,19.45
2022-12-31T09:06:09.899Z,18.67
2022-12-31T09:08:46.020Z,18.88
2022-12-31T09:11:23.470Z,20.02
2022-12-31T09:14:05.270Z,20.10
2022-12-31T09:16:39.642Z,19.13
2022-12-31T09:19:08.376Z,17.38
2022-12-31T09:21:35.648Z,18.08
2022-12-31T09:24:09.156Z,18.67
2022-12-31T09:27:10.454Z,20.33
2022-12-31T09:30:05.384Z,18.00
2022-12-31T09:32:35.177Z,18.10
2022-12-31T09:35:03.968Z,17.98
2022-12-31T09:37:36.901Z,21.48
2022-12-31T09:40:25.527Z,13.15
2022-12-31T09:43:02.229Z,17.27
2022-12-31T09:45:34.879Z,18.83
2022-12-31T09:48:20.855Z,17.93
2022-12-31T09:50:59.505Z,17.63
2022-12-31T09:53:36.049Z,12.23
2022-12-31T09:56:12.631Z,18.25
2022-12-31T09:59:05.897Z,16.95
2022-12-31T10:02:02.324Z,15.40
2022-12-31T10:04:47.865Z,17.15
2022-12-31T10:07:33.443Z,14.73
2022-12-31T10:10:21.743Z,18.75
2022-12-31T10:13:29.670Z,17.65
2022-12-31T10:16:09.929Z,16.75
2022-12-31T10:18:58.352Z,18.40
2022-12-31T10:21:41.612Z,16.77
2022-12-31T10:24:44.669Z,17.17
2022-12-31T10:27:30.325Z,17.85
2022-12-31T10:30:13.269Z,19.33
2022-12-31T10:32:45.087Z,18.20
2022-12-31T10:35:41.215Z,19.02
2022-12-31T10:38:45.319Z,16.25
2022-12-31T10:41:54.412Z,18.27
2022-12-31T10:44:52.515Z,13.95
2022-12-31T10:47:28.152Z,19.80
2022-12-31T10:50:31.858Z,19.05
2022-12-31T10:53:29.744Z,19.25
2022-12-31T10:56:08.596Z,18.95
2022-12-31T10:58:38.108Z,20.17
2022-12-31T11:02:03.573Z,19.00
2022-12-31T11:05:22.853Z,20.90
2022-12-31T11:07:54.643Z,22.00
2022-12-31T11:10:39.903Z,21.23
2022-12-31T11:13:21.916Z,20.83
2022-12-31T11:16:07.738Z,22.70
2022-12-31T11:18:56.351Z,20.50
2022-12-31T11:22:18.712Z,20.65
2022-12-31T11:25:16.141Z,22.13
2022-12-31T11:28:04.488Z,19.58
2022-12-31T11:31:05.153Z,19.70
2022-12-31T11:34:05.134Z,21.40
2022-12-31T11:36:45.562Z,20.33
2022-12-31T11:39:53.904Z,20.77
2022-12-31T11:42:59.612Z,21.08
2022-12-31T11:46:00.310Z,20.45
2022-12-31T11:48:54.269Z,20.35
2022-12-31T11:51:42.168Z,23.45
2022-12-31T11:54:57.536Z,14.77
2022-12-31T11:57:34.719Z,20.33
2022-12-31T12:00:34.270Z,21.13
2022-12-31T12:03:04.648Z,22.10
2022-12-31T12:05:35.511Z,21.10
2022-12-31T12:08:03.057Z,20.38
2022-12-31T12:10:38.082Z,20.02
2022-12-31T12:13:31.247Z,20.60
2022-12-31T12:16:08.986Z,19.73
2022-12-31T12:18:49.678Z,18.95
2022-12-31T12:21:25.301Z,20.20
2022-12-31T12:24:02.626Z,20.25
2022-12-31T12:26:35.555Z,22.92
2022-12-31T12:29:12.087Z,21.30
2022-12-31T12:31:39.431Z,19.30
2022-12-31T12:34:21.112Z,23.20
2022-12-31T12:36:48.440Z,23.55
2022-12-31T12:39:20.826Z,20.63
2022-12-31T12:41:48.243Z,21.63
2022-12-31T12:44:16.787Z,23.75
2022-12-31T12:46:48.485Z,19.58
2022-12-31T12:49:25.930Z,23.10
2022-12-31T12:52:29.274Z,22.17
2022-12-31T12:55:35.009Z,22.88
2022-12-31T12:58:26.869Z,21.20
2022-12-31T13:01:36.794Z,21.10
2022-12-31T13:04:34.371Z,24.13
2022-12-31T13:07:29.165Z,21.58
2022-12-31T13:15:53.948Z,21.70
2022-12-31T13:18:48.756Z,24.17
2022-12-31T13:21:27.836Z,22.02
2022-12-31T13:24:01.301Z,22.90
2022-12-31T13:29:03.723Z,21.40
2022-12-31T13:31:35.415Z,20.70
2022-12-31T13:34:13.517Z,22.13
2022-12-31T13:36:43.135Z,23.00
2022-12-31T13:39:20.544Z,21.70
2022-12-31T13:41:58.926Z,21.17
2022-12-31T13:44:34.571Z,19.17
2022-12-31T13:47:12.805Z,18.67
2022-12-31T13:49:53.464Z,20.17
2022-12-31T13:52:40.150Z,22.15
2022-12-31T13:55:15.978Z,21.30
2022-12-31T13:57:48.247Z,20.65
2022-12-31T14:00:25.426Z,19.48
2022-12-31T14:03:14.119Z,21.40
2022-12-31T14:05:56.315Z,22.35
2022-12-31T14:08:23.450Z,21.20
2022-12-31T14:11:24.403Z,21.13
2022-12-31T14:14:06.374Z,21.30
2022-12-31T14:16:41.129Z,21.45
2022-12-31T14:19:32.342Z,21.60
2022-12-31T14:22:03.950Z,20.95
2022-12-31T14:24:43.482Z,19.35
2022-12-31T14:27:41.958Z,20.80
2022-12-31T14:30:22.285Z,19.33
2022-12-31T14:33:01.416Z,20.80
2022-12-31T14:35:31.426Z,19.67
2022-12-31T14:38:11.162Z,19.15
2022-12-31T14:40:56.750Z,18.27
2022-12-31T14:43:48.433Z,15.65
2022-12-31T14:46:29.831Z,13.63
2022-12-31T14:49:12.439Z,17.85
2022-12-31T14:51:39.509Z,9.15
2022-12-31T14:54:28.880Z,18.65
2022-12-31T14:56:56.398Z,17.63
2022-12-31T14:59:27.722Z,15.18
2022-12-31T15:01:56.974Z,19.27
2022-12-31T15:05:03.307Z,18.85
2022-12-31T15:07:48.343Z,20.20
2022-12-31T15:10:30.051Z,18.10
2022-12-31T15:13:07.577Z,17.40
2022-12-31T15:15:58.875Z,12.57
2022-12-31T15:18:38.727Z,18.35
2022-12-31T15:21:26.902Z,20.70
2022-12-31T15:23:54.692Z,20.70
2022-12-31T15:26:27.933Z,21.05
2022-12-31T15:29:02.912Z,22.05
2022-12-31T15:31:31.895Z,22.58
2022-12-31T15:34:07.864Z,20.33
2022-12-31T15:36:38.659Z,20.95
2022-12-31T15:39:11.691Z,19.75
2022-12-31T15:42:03.034Z,19.45
2022-12-31T15:44:43.641Z,19.13
2022-12-31T15:47:15.459Z,19.08
2022-12-31T15:49:46.457Z,17.88
2022-12-31T15:52:20.750Z,20.52
2022-12-31T15:54:55.462Z,21.02
2022-12-31T15:57:41.398Z,22.00
2022-12-31T16:00:21.204Z,21.35
2022-12-31T16:02:52.514Z,24.20
2022-12-31T16:05:27.697Z,21.98
2022-12-31T16:07:59.447Z,19.40
2022-12-31T16:10:31.977Z,16.23
2022-12-31T16:12:59.874Z,18.33
2022-12-31T16:15:30.571Z,19.00
2022-12-31T16:18:00.069Z,18.08
2022-12-31T16:20:32.770Z,18.92
2022-12-31T16:23:02.287Z,19.77
2022-12-31T16:25:32.918Z,18.73
2022-12-31T16:28:03.664Z,20.88
2022-12-31T16:30:37.532Z,22.00
2022-12-31T16:33:07.023Z,22.33
2022-12-31T16:35:36.809Z,20.30
2022-12-31T16:38:16.590Z,21.92
2022-12-31T16:41:01.578Z,21.45
2022-12-31T16:43:40.781Z,19.98
2022-12-31T16:46:27.945Z,22.30
2022-12-31T16:48:54.801Z,23.33
2022-12-31T16:51:25.934Z,23.27
2022-12-31T16:53:53.374Z,22.00
2022-12-31T16:56:33.802Z,23.70
2022-12-31T16:59:07.310Z,23.65
2022-12-31T17:01:37.481Z,22.17
2022-12-31T17:04:11.620Z,23.10
2022-12-31T17:06:38.801Z,23.67
2022-12-31T17:09:05.645Z,23.23
2022-12-31T17:11:41.905Z,24.17
2022-12-31T17:14:08.665Z,24.63
2022-12-31T17:16:38.465Z,23.85
2022-12-31T17:19:05.993Z,23.35
2022-12-31T17:21:33.622Z,23.30
2022-12-31T17:24:13.587Z,26.80
2022-12-31T17:26:40.752Z,24.48
2022-12-31T17:29:17.601Z,33.35
2022-12-31T17:32:05.661Z,35.10
2022-12-31T17:34:47.777Z,31.17
2022-12-31T17:37:27.338Z,31.25
2022-12-31T17:40:10.869Z,32.67
2022-12-31T17:42:46.354Z,30.70
2022-12-31T17:45:20.943Z,28.77
2022-12-31T17:47:55.669Z,31.08
2022-12-31T17:50:27.091Z,31.90
2022-12-31T17:53:10.836Z,33.33
2022-12-31T17:55:37.859Z,32.60
2022-12-31T17:58:06.546Z,31.92
2022-12-31T18:00:34.183Z,31.40
2022-12-31T18:03:01.375Z,31.55
2022-12-31T18:05:28.427Z,33.30
2022-12-31T18:07:55.563Z,33.42
2022-12-31T18:10:24.263Z,30.67
2022-12-31T18:12:51.647Z,35.25
2022-12-31T18:15:24.075Z,39.22
2022-12-31T18:17:51.333Z,33.80
2022-12-31T18:20:18.767Z,34.15
2022-12-31T18:22:46.079Z,34.80
2022-12-31T18:25:18.965Z,32.60
2022-12-31T18:27:46.370Z,34.58
2022-12-31T18:30:13.517Z,35.58
2022-12-31T18:32:41.653Z,38.60
2022-12-31T18:35:40.742Z,36.00
2022-12-31T18:38:11.708Z,35.72
2022-12-31T18:40:42.719Z,34.95
2022-12-31T18:43:16.507Z,35.33
2022-12-31T18:45:44.387Z,36.40
2022-12-31T18:48:11.859Z,37.85
2022-12-31T18:50:39.458Z,37.67
2022-12-31T18:53:07.072Z,37.55
2022-12-31T18:55:44.440Z,37.42
2022-12-31T18:58:11.508Z,35.58
2022-12-31T19:00:38.530Z,38.45
2022-12-31T19:03:05.726Z,40.92
2022-12-31T19:05:37.004Z,40.17
2022-12-31T19:08:04.263Z,39.17
2022-12-31T19:10:31.056Z,39.00
2022-12-31T19:12:58.173Z,41.17
2022-12-31T19:15:33.413Z,43.97
2022-12-31T19:18:01.725Z,44.38
2022-12-31T19:20:30.241Z,45.60
2022-12-31T19:22:57.846Z,46.50
2022-12-31T19:25:28.069Z,44.92
2022-12-31T19:27:55.156Z,47.22
2022-12-31T19:30:29.334Z,46.20
2022-12-31T19:32:56.395Z,47.45
2022-12-31T19:35:24.060Z,46.42
2022-12-31T19:37:52.535Z,46.72
2022-12-31T19:40:23.140Z,46.75
2022-12-31T19:42:51.480Z,48.78
2022-12-31T19:45:20.605Z,48.47
2022-12-31T19:47:48.031Z,46.63
2022-12-31T19:50:17.333Z,51.45
2022-12-31T19:52:45.716Z,51.90
2022-12-31T19:55:18.713Z,51.00
2022-12-31T19:57:47.169Z,50.25
2022-12-31T20:00:16.603Z,52.03
2022-12-31T20:02:45.595Z,49.10
2022-12-31T20:05:15.977Z,49.08
2022-12-31T20:07:43.280Z,51.42
2022-12-31T20:10:10.968Z,47.22
2022-12-31T20:12:44.138Z,51.28
2022-12-31T20:15:11.548Z,51.00
2022-12-31T20:17:38.723Z,49.13
2022-12-31T20:20:06.816Z,50.72
2022-12-31T20:22:33.983Z,54.80
2022-12-31T20:25:00.821Z,53.58
2022-12-31T20:27:28.021Z,52.55
2022-12-31T20:29:54.793Z,50.70
2022-12-31T20:32:21.820Z,50.13
2022-12-31T20:34:48.758Z,49.40
2022-12-31T20:37:16.020Z,49.38
2022-12-31T20:39:44.008Z,50.72
2022-12-31T20:42:11.292Z,51.33
2022-12-31T20:44:38.074Z,51.60
2022-12-31T20:47:05.117Z,55.17
2022-12-31T20:50:09.241Z,53.85
2022-12-31T20:52:18.933Z,54.22
2022-12-31T20:54:45.715Z,51.40
2022-12-31T20:57:12.793Z,51.13
2022-12-31T20:59:39.588Z,52.08
2022-12-31T21:02:26.520Z,56.45
2022-12-31T21:04:54.487Z,52.10
2022-12-31T21:07:21.717Z,51.00
2022-12-31T21:09:48.516Z,52.08
2022-12-31T21:12:34.543Z,52.30
2022-12-31T21:15:02.441Z,51.25
2022-12-31T21:17:29.532Z,50.47
2022-12-31T21:19:56.325Z,52.92
2022-12-31T21:22:24.171Z,54.17
2022-12-31T21:24:50.970Z,56.13
2022-12-31T21:27:18.054Z,52.97
2022-12-31T21:30:16.377Z,54.72
2022-12-31T21:32:31.875Z,54.25
2022-12-31T21:35:31.462Z,52.90
2022-12-31T21:37:58.643Z,53.50
2022-12-31T21:40:27.927Z,51.50
2022-12-31T21:42:55.057Z,54.88
2022-12-31T21:45:22.111Z,53.20
2022-12-31T21:48:07.672Z,53.80
2022-12-31T21:50:34.645Z,51.33
2022-12-31T21:53:01.835Z,51.47
2022-12-31T21:55:47.190Z,52.58
2022-12-31T21:58:25.831Z,50.40
2022-12-31T22:01:12.435Z,50.05
2022-12-31T22:03:39.832Z,50.05
2022-12-31T22:06:10.422Z,51.95
2022-12-31T22:08:38.873Z,49.97
2022-12-31T22:11:06.539Z,48.47
2022-12-31T22:13:34.807Z,52.35
2022-12-31T22:16:05.734Z,51.72
2022-12-31T22:18:35.792Z,52.92
2022-12-31T22:21:18.918Z,58.13
2022-12-31T22:26:23.666Z,57.22
2022-12-31T22:28:51.442Z,60.47
2022-12-31T22:31:21.681Z,63.05
2022-12-31T22:33:48.922Z,63.97
2022-12-31T22:36:20.680Z,59.42
2022-12-31T22:38:49.269Z,54.63
2022-12-31T22:41:19.257Z,54.78
2022-12-31T22:43:49.326Z,51.92
2022-12-31T22:46:22.247Z,54.15
2022-12-31T22:48:50.767Z,56.08
2022-12-31T22:51:18.873Z,62.85
2022-12-31T22:53:46.937Z,59.20
2022-12-31T22:56:16.603Z,54.30
2022-12-31T22:58:44.567Z,57.38
2022-12-31T23:01:19.596Z,58.10
2022-12-31T23:03:47.475Z,57.78
2022-12-31T23:06:14.700Z,54.88
2022-12-31T23:09:02.204Z,58.33
2022-12-31T23:11:29.763Z,57.10
2022-12-31T23:14:15.718Z,56.45
2022-12-31T23:17:01.024Z,51.70
2022-12-31T23:20:06.625Z,51.55
2022-12-31T23:22:52.587Z,52.65
2022-12-31T23:25:19.896Z,53.97
2022-12-31T23:27:46.702Z,57.03
2022-12-31T23:30:13.977Z,56.10
2022-12-31T23:32:40.808Z,61.55
2022-12-31T23:35:10.021Z,62.22
2022-12-31T23:37:37.051Z,67.57
2022-12-31T23:40:04.643Z,70.68
2022-12-31T23:42:31.556Z,78.80
2022-12-31T23:44:58.701Z,82.10
2022-12-31T23:47:25.526Z,83.82
2022-12-31T23:49:52.661Z,82.47
2022-12-31T23:52:19.609Z,80.28
2022-12-31T23:54:46.697Z,79.07
2022-12-31T23:57:13.500Z,76.22
2022-12-31T23:59:40.676Z,78.93
